SEASEATTLE-TACOMA INTL
METARs for nearby airports:
N 0 432' KSEA 241253Z 16005KT 10SM FEW040 08/04 A3006
NE 4 32' KRNT 241253Z 10004KT 10SM BKN047 BKN055 10/05 A3006
N 4 21' KBFI 241253Z 15004KT 10SM FEW046 09/06 A3006
SW 15 294' KTIW 241253Z 20005KT 10SM CLR 08/05 A3005
W 18 443' KPWT 241256Z 00000KT 10SM CLR 04/03 A3005
S 19 322' KTCM 241258Z 19006KT 10SM SCT055 06/05 A3006
S 20 537' KPLU 241335Z 00000KT 10SM 08/05 A3007
SW 24 305' KGRF 241255Z VRB03KT 10SM SCT050 08/04 A3009
N 27 607' KPAE 241253Z 00000KT 10SM SCT024 OVC043 08/04 A3006
W 36 272' KSHN 241253Z 25004KT 10SM CLR 06/03 A3004
SW 37 207' KOLM 241254Z 20005KT 10SM FEW034 07/04 A3007
N 43 141' KAWO 241335Z 32003KT 10SM FEW040 OVC047 09/03 A3008
SW 53 177' KCLS 241335Z 19003KT 10SM BKN042 09/06 A3009
N 55 47' KNUW 241256Z 28016G23KT 10SM FEW040 SCT070 11/05 A3008
NW 60 13' KNOW 241335Z 27012KT 10SM CLR 11/04 A3003
N 61 145' KBVS 241335Z VRB03KT 9SM OVC055 10/07 A3004
NW 62 291' KCLM 241253Z 24012KT 10SM CLR 09/01 A3004
NW 70 112' KFHR 241253Z 24003KT 10SM CLR 09/06 A3003
SW 72 17' KHQM 241253Z 30010KT 4SM BR FEW025 OVC040 10/08 A3010
E 76 1763' KELN 241253Z 30015KT 10SM CLR 08/M01 A2991
N 79 34' KORS 241335Z 18010G15KT 9SM OVC055 09/05 A3001
N 81 170' KBLI 241253Z 17007KT 10SM OVC043 11/05 A3000
S 83 20' KKLS 241256Z 00000KT 10SM OVC040 08/06 A3012
NW 84 64' CYYJ 241300Z 00000KT 30SM FEW020 FEW040 07/04 A3002
E 85 1248' KEAT 241255Z 30017KT 10SM CLR 09/M03 A2986
SE 89 1098' KYKM 241253Z 34007KT 10SM CLR 11/M01 A2993
W 95 193' KUIL 241253Z 30007KT 10SM SCT018 BKN026 OVC035 10/08 A3008
TAFs for nearby airports:
N 0 432' KSEA KSEA 241121Z 2412/2518 19007KT P6SM SCT035 BKN050
  FM241500 17010KT P6SM SCT035 BKN050
  FM241800 22010KT P6SM SCT050
  FM242100 30008KT P6SM SCT090
  FM250400 VRB03KT P6SM SCT250
N 4 21' KBFI KBFI 241121Z 2412/2512 15006KT P6SM SCT050
  TEMPO 2412/2416 BKN050
  FM241800 20009KT P6SM SCT050
  FM242100 28006KT P6SM SCT090
  FM250300 VRB03KT P6SM SCT250
S 19 322' KTCM TAF KTCM 241303Z 2413/2519 20009KT 9999 SCT020 BKN060 QNH3000INS
  BECMG 2420/2421 23009KT 9999 BKN030 QNH2996INS
  BECMG 2507/2508 VRB06KT 9999 BKN020 QNH2990INS
  BECMG 2517/2518 35009KT 9999 SCT030 QNH2987INS TX16/2421Z TN06/2511Z
SW 24 305' KGRF TAF KGRF 241302Z 2413/2519 20009KT 9999 SCT020 BKN060 QNH3000INS
  BECMG 2420/2421 23009KT 9999 BKN030 QNH2996INS
  BECMG 2507/2508 VRB06KT 9999 BKN020 QNH2990INS
  BECMG 2517/2518 35009KT 9999 SCT030 QNH2987INS TX16/2421Z TN07/2511Z
N 27 607' KPAE KPAE 241121Z 2412/2512 VRB05KT P6SM SCT045
  FM241500 21007KT P6SM BKN045
  FM241800 25006KT P6SM SCT045
  FM242100 33006KT P6SM SCT090
  FM250300 VRB03KT P6SM SCT250
SW 37 207' KOLM KOLM 241121Z 2412/2512 21005KT P6SM BKN035 BKN050
  FM241800 23009KT P6SM SCT035 BKN050
  FM242100 26012KT P6SM SCT050 SCT090
  FM250000 28006KT P6SM SCT090 SCT250
  FM250600 VRB03KT P6SM SCT250
  FM250900 00000KT P6SM SCT022
N 55 47' KNUW TAF KNUW 2407/2507 27018G30KT 9999 SCT015 SCT030 BKN050 640609 530009 531409 QNH3000INS
  FM240900 25016G26KT 9999 VCSH SCT007 BKN030 BKN050 640609 530009 531409 QNH2999INS
  TEMPO 2409/2415 24014KT 8000 -RA BR BKN006 BKN012 OVC050
  FM241500 24013G20KT 9999 VCSH BKN015 BKN030 OVC050 640609 500000 QNH3001INS
  TEMPO 2415/2421 8000 -RA BR BKN008
  FM242100 30007KT 9999 VCSH SCT010 SCT050 BKN150 600000 QNH2995INS
  FM250200 VRB06KT 9999 SCT015 BKN040 BKN150 QNH2990INS T09/2412Z T16/2423Z FS30113
NW 62 291' KCLM TAF KCLM 241121Z 2412/2512 30009KT P6SM SCT028
  FM241800 33013KT P6SM SCT028 SCT050
  TEMPO 2418/2420 BKN028 BKN050
  FM242100 33009KT P6SM FEW050 SCT090
  FM250200 28007KT P6SM SCT250
  FM250600 VRB03KT P6SM SKC
SW 72 17' KHQM KHQM 241121Z 2412/2512 28011KT P6SM SCT025 SCT040
  TEMPO 2412/2416 SCT025 BKN040
  FM241800 25018G28KT P6SM SCT040
  FM250000 27013KT P6SM SCT040
  FM250300 30006KT P6SM SCT030
  FM250600 VRB03KT P6SM OVC025
N 81 170' KBLI KBLI 241121Z 2412/2512 17008KT P6SM BKN040
  FM241800 19013KT P6SM BKN050
  FM242100 19009KT P6SM SCT050 SCT090
  FM250000 17004KT P6SM SCT250
E 85 1248' KEAT KEAT 241139Z 2412/2512 29014KT P6SM SKC
  FM241400 30017G25KT P6SM FEW150
  FM242200 31023G34KT P6SM FEW080 SCT130
  FM250300 30012KT P6SM SCT120
SE 89 1098' KYKM TAF KYKM 241129Z 2412/2512 29010KT P6SM SKC
  FM241500 33017G25KT P6SM SKC
  FM250800 30005KT P6SM SCT250
Area forecast:
000
FAUS46 KKCI 241045
FA6W  
SFOC FA 241045
SYNOPSIS AND VFR CLDS/WX
SYNOPSIS VALID UNTIL 250500
CLDS/WX VALID UNTIL 242300...OTLK VALID 242300-250500
WA OR CA AND CSTL WTRS
.
SEE AIRMET SIERRA FOR IFR CONDS AND MTN OBSCN.
TS IMPLY SEV OR GTR TURB SEV ICE LLWS AND IFR CONDS.
NON MSL HGTS DENOTED BY AGL OR CIG.
.
SYNOPSIS...SFC...11Z HI PRES NERN OR-OR CSTL WTRS. CDFNT NCNTRL
MT-SW ID-NERN CA. LOW PRES 50SW PYE. THERMAL TROF CNTRL NV-EED-SW
AZ. 05Z TROF FM LOW PRES NRN ENI SWWD THRU CSTL WTRS. TROF
SASK-NRN ID-SE WA. HI PRES RDG OR CSTL WTRS-CNTRL ID. ALF...UPR
LVL LOW PRES SE BC WITH TROF SWWD TO NW OR MOVG TO SRN SASK BY
05Z. WLY JTST ACRS WA.
.
WA CASCDS WWD
CSTL SXNS...BKN025 TOP 040. 18Z SCT030. WND SW G25-30KT.
OTLK...VFR 03Z MVFR CIG.
INTR...BKN035 OVC050 TOP 090. 12Z ISOL -SHRA. 15Z BKN025 TOP 120.
ISOL -SHRA. 18Z SCT-BKN050. ISOL -SHRA. OTLK...VFR.
N CASCDS...OVC045 TOP 090. ISOL -SHRA/-SHSN ABV 040. 16Z OVC045
TOP 120. WDLY SCT -SHRA/-SHSN ABV 040. OTLK...IFR CIG SHRA SHSN.
S CASCDS...SCT060. 14Z BKN050 TOP 070. 18Z BKN045 LYRD 140. ISOL
-SHRA/-SHSN ABV 050. OTLK...MVFR CIG SHRA SHSN.
.
WA E OF CASCDS
NCNTRL WA...SKC. TIL 23Z WND NW G25KT. 16Z SCT060 BKN120 TOP
FL180. 19Z SCT060 BKN080 TOP 160. ISOL -SHRA. OTLK...VFR TIL 01Z
SHRA.
NERN WA...SKC. 20Z BKN080 TOP 160. ISOL -SHRA. WND W G25KT.
OTLK...VFR TIL 02Z SHRA WND.
SRN HLF...SKC. 15Z SCT120. WND W G25-30KT. OTLK...VFR TIL 03Z
WND.
.
OR CASCDS WWD
NRN CSTL...BKN025 TOP 040. 20Z SCT-BKN045 TOP 060. WND N G25KT.
OTLK...VFR WND 04Z MVFR CIG.
SRN CSTL...SCT015. 18Z SKC. 20Z WND N 25G35KT. OTLK...VFR WND.
NW INTR...SCT035. 12Z BKN025 TOP 040. 19Z SCT030. 22Z BKN035 TOP
060. OTLK...VFR.
SWRN INTR...SKC. OTLK...VFR.
N CASCDS...BKN045 TOP 060. OCNL VIS 3-5SM BR. 17Z SKC.
OTLK...VFR.
S CASCDS...SKC. OTLK...VFR.
.
OR E OF CASCDS
NRN HLF...SKC. 18Z WND NW 20G30KT. OTLK...VFR TIL 03Z WND.
SRN HLF...SKC. OTLK...VFR.
.
NRN CA...STS-SAC-TVL LN NWD
CSTL SXNS
CSTLN...OVC010 TOP 020. VIS 3SM BR. 18Z SKC. OTLK...VFR.
INLAND...SKC. OTLK...VFR.
SHASTA-SISKIYOUS-NERN CA...SKC. 19Z SCT100. ISOL -TSRA. CB TOP
FL350. OTLK...VFR TIL 04Z TSRA.
SAC VLY...SKC. OTLK...VFR.
NRN SIERNEV...SKC. 18Z SCT120. WND SW G25KT. 20Z ISOL
-SHRA/-TSRA. CB TOP FL350. OTLK...VFR TIL 03Z WND.
.
CNTRL CA
CSTL SXNS N OF 50S SNS...OVC010 TOP 020. VIS 3SM BR. 15Z
BKN010-015. 18Z SKC. OTLK...VFR EXC BECMG 02Z IFR CIG CSTLN.
CSTL SXNS S OF 50S SNS...OVC010 TOP 020. VIS 3SM BR. 18Z SKC.
OTLK...VFR 04Z IFR CIG.
SAN JOAQUIN VLY...SKC. OTLK...VFR.
SRN SIERNEV...SKC. 17Z BKN CI. 20Z BKN160 LYRD FL250. ISOL -TSRA.
CB TOP FL350. OTLK...VFR TIL 02Z TSRA.
.
SRN CA...VBG-NID-60NNW BIH LN SWD
CSTL SXNS
CSTLN LAX NWD...OVC010 TOP 020-025. VIS 3SM BR. BECMG 1719 BKN015
TOP 025. OTLK...MVFR CIG.
CSTLN S OF LAX...OVC010 TOP 015. VIS 3-5SM BR. 18Z SCT010.
OTLK...VFR 03Z MVFR CIG.
INLAND LAX NWD...SKC. 13Z OVC010-015 TOP 020. VIS 3SM BR. 17Z
SKC. OTLK...VFR 03Z MVFR CIG.
INLAND S OF LAX...SKC. 12Z OCNL VIS 3-5SM HZ/BR. 15Z SKC.
OTLK...VFR.
NRN MTNS-NRN DESERTS...SKC. 20Z WND SW 20G35KT. OTLK...VFR TIL
03Z WND.
SRN MTNS...SKC. 21Z WND W G25-30KT. OTLK...VFR WND.
SRN DESERTS...SKC. 20Z WND W 20G30KT. OTLK...VFR WND.
.
CSTL WTRS
WA...BKN025 TOP 100. ISOL -SHRA. 21Z WND NW 25-35KT. OTLK...MVFR
CIG SHRA WND.
OR
NRN...BKN025 TOP 100. OCNL VIS 3-5SM -DZ BR. WND N 20-25KT. 19Z
BKN025 TOP 060. WND N 20-25KT. OTLK...MVFR CIG WND.
SRN...BKN025 TOP 100. WND N 30-40KT. OTLK...MVFR CIG WND.
CA
NRN...OVC010-015 TOP 025. WND N 30-40KT. 19Z BKN025 TOP 080. WND
N 30-40KT. OTLK...MVFR CIG WND.
CNTRL...OVC010 TOP 020. TIL 16Z VIS 3-5SM BR. OTLK...IFR CIG 04Z
BR.
SRN
OFSHR...BKN010 BKN160 TOP FL250. OCNL VIS 3-5SM BR. ISOL
-SHRA/-TSRA. CB TOP FL340. 14Z OVC010 TOP 020. OTLK...IFR CIG.
NRSHR...OVC010 TOP 020. VIS 3SM BR. 18Z BKN010-015. OTLK...IFR
CIG.
....

Shortcut to this page: http://wxbay.com.

Data may contain errors.